URMN 171800Z 34005MPS 9999 BKN059CB OVC067 15/10 Q1015 R24/010070 NOSIG RMK QFE725
QNH:(hPa/inHg/mmHg)1015 / 29.97 / 761
QFE:(hPa/inHg/mmHg)999 / 29.49 / 749
Temperature15
Dew Point10
Visibility> 10000
Weather
Cloud CoverBKN (5900);
OVC (6700);
Transition Altitude5000 ft.
Transition LevelFL60
SQUAWK